x

Halibut Bank (46146) Wave Buoy

8:00 - Sat 19th Apr 2014 All times are PDT. -7 hours from GMT.

  • Sig Wave height 1.3ft
  • Peak Period 4s
  • Wind
    13mph, 18mph gusts
  • Sea Temp 49°f
  • Ar Temp 50°f
  • Sea Pressure 1013.6mb
  • Halibut Bank
  • Halibut Bank

More Historic Weather Station data

Upgrade to MSW Pro to gain access to the past 30 days of data for over 8000 Wavebouys and Weather Stations around the globe.

Join Pro

Comparision Forecast

View Surf forecast
   
Sáb 04/19 8:00 1.3ft 4s 13 18 mph 1013.6mb 49f 50f
7:00 1.6ft 3s 11 13 mph 1012.4mb 49f 50f
6:00 2.5ft 3s 16 18 mph 1011.8mb 49f 50f
5:00 2.5ft 4s 16 20 mph 1011.4mb 49f 50f
4:00 2ft 3s 22 25 mph 1010.7mb 49f 49f
3:00 1.6ft 3s 20 25 mph 1010.3mb 49f 49f
2:00 1ft 2s 20 25 mph 1009.6mb 49f 50f
1:00 1ft 2s 18 22 mph 1008.9mb 49f 48f
12:00 1ft 2s 13 16 mph 1007.8mb 50f 49f
11:00 1ft 3s 16 18 mph 1007.9mb 49f 48f
10:00 1ft 3s 13 16 mph 1007.7mb 49f 49f
9:00 1.3ft 4s 18 22 mph 1007.8mb 50f 50f
8:00 1.6ft 3s 16 18 mph 1007.2mb 50f 51f
7:00 0.3ft 2s 25 29 mph 1007.6mb 50f 50f
6:00 1ft 2s 4 9 mph 1009.7mb 49f 48f
5:00 1ft 2s 13 18 mph 1010.4mb 49f 48f
4:00 1ft 6s 11 13 mph 1010mb 49f 48f
3:00 1ft 3s 11
mph
1010.5mb 50f 50f
2:00 1.3ft 3s 13
mph
1011.3mb 50f 50f
1:00 1ft 3s 16 18 mph 1011.7mb 50f 49f
12:00 1ft 3s 16 18 mph 1012.7mb 50f 49f
Sex 04/18 11:00 1ft 3s 13 16 mph 1013.9mb 50f 50f
10:00 1ft 2s 13 18 mph 1014.8mb 51f 51f
9:00 0.7ft 2s 13 16 mph 1015.5mb 51f 51f
8:00 0.7ft 2s 13 18 mph 1015.7mb 51f 51f
7:00 0.7ft 2s 13 18 mph 1016.6mb 50f 51f
6:00 0.3ft 2s 9
mph
1017.3mb 51f 51f
5:00 0.3ft 3s 9
mph
1017.9mb 51f 51f
4:00 0.3ft 3s 7 9 mph 1018.6mb 51f 50f
3:00 0.3ft 7s 11 13 mph 1018.9mb 51f 49f
2:00 0.3ft 3s 9 11 mph 1019.2mb 52f 49f
1:00 0.7ft 3s 2 4 mph 1019.4mb 51f 49f
12:00 0.7ft 3s 4 7 mph 1019.2mb 51f 49f
11:00 0.7ft 3s 2 4 mph 1018.6mb 50f 49f
10:00 1ft 3s 7 9 mph 1018.1mb 49f 48f
9:00 1.3ft 3s 9 11 mph 1017.3mb 50f 48f
8:00 1.3ft 3s 13 18 mph 1016.5mb 50f 47f
7:00 1ft 3s 11 13 mph 1015.9mb 50f 46f
6:00 1ft 3s 11 13 mph 1014.8mb 50f 47f
5:00 1.3ft 3s 13
mph
1014mb 50f 47f
4:00 1.3ft 3s 16 18 mph 1013mb 50f 47f
3:00 1.3ft 3s 16 18 mph 1012.4mb 50f 47f
2:00 1ft 4s 13 18 mph 1011.8mb 50f 47f
1:00 1.3ft 4s 13 18 mph 1011.1mb 50f 48f
12:00 1.6ft 4s 13 16 mph 1010.1mb 49f 48f
Qui 04/17 11:00 2.5ft 4s 16 18 mph 1009mb 50f 48f
10:00 3.5ft 5s 20 22 mph 1008.1mb 49f 47f
9:00 3.5ft 5s 27 34 mph 1006.5mb 48f 47f
8:00 3.5ft 4s 25 29 mph 1005.7mb 48f 46f
7:00 1.6ft 3s 31 38 mph 1004.7mb 49f 46f
6:00 2ft 3s 16 18 mph 1004.6mb 49f 50f
5:00 2ft 3s 18 22 mph 1004.7mb 49f 50f
4:00 2ft 3s 18 22 mph 1005.3mb 50f 51f
3:00 2.5ft 4s 20 25 mph 1006mb 50f 50f
2:00 2.5ft 4s 20 22 mph 1006.6mb 50f 50f
1:00 2.5ft 4s 18 22 mph 1007mb 50f 50f
12:00 2.5ft 4s 22 25 mph 1007.5mb 50f 49f
11:00 2.5ft 4s 20 22 mph 1008mb 50f 49f
10:00 2.5ft 3s 18 22 mph 1008.2mb 50f 49f
9:00 1.6ft 3s 18 22 mph 1008.3mb 50f 49f
8:00 1.6ft 3s 20 25 mph 1008.4mb 50f 50f
7:00 1.3ft 3s 20 25 mph 1008.6mb 50f 50f
6:00 1.3ft 3s 18 20 mph 1008.7mb 50f 49f
5:00 1.3ft 3s 16 18 mph 1008.9mb 50f 49f
4:00 1.3ft 3s 13 16 mph 1008.9mb 50f 50f
3:00 1.6ft 3s 13 16 mph 1009.2mb 50f 50f
2:00 1.6ft 3s 18 22 mph 1009.9mb 50f 50f
1:00 1.6ft 4s 18 20 mph 1010.6mb 50f 50f
12:00 1.3ft 4s 18 20 mph 1011mb 50f 50f
Qua 04/16 11:00 1.6ft 4s 16 18 mph 1011.6mb 50f 50f
10:00 1.3ft 4s 16 18 mph 1012.5mb 50f 50f
9:00 1.3ft 3s 16 18 mph 1012.9mb 50f 50f
8:00 1.6ft 3s 13 16 mph 1012.9mb 50f 50f
7:00 2ft 3s 18 20 mph 1013.3mb 50f 51f
6:00 2ft 3s 20 22 mph 1013.7mb 51f 51f
5:00 2ft 4s 18 22 mph 1014.2mb 51f 51f
4:00 2ft 4s 18 22 mph 1014.8mb 51f 50f
3:00 2ft 4s 20 25 mph 1015.1mb 51f 50f
2:00 2ft 4s 20 22 mph 1015.5mb 51f 49f
1:00 2.5ft 4s 20 25 mph 1015.7mb 51f 49f
12:00 2ft 4s 18 22 mph 1015.8mb 50f 49f
11:00 1.6ft 4s 18 22 mph 1015.9mb 50f 48f
10:00 1.3ft 3s 18 20 mph 1015.9mb 50f 48f
9:00 1.3ft 4s 18 20 mph 1015.8mb 50f 48f
8:00 1.3ft 3s 18 20 mph 1015.6mb 50f 47f
7:00 1.3ft 3s 16 20 mph 1015.6mb 50f 47f
6:00 1.3ft 3s 16 18 mph 1015.6mb 50f 47f
5:00 1ft 3s 16 18 mph 1015.6mb 50f 47f